Time;durP1;ratioP1;P1;durP2;ratioP2;P2;SDS_P1;SDS_P2;PMS_P1;PMS_P2;Temp;Humidity;BMP_temperature;BMP_pressure;BME280_temperature;BME280_humidity;BME280_pressure;Samples;Min_cycle;Max_cycle;Signal;HPM_P1;HPM_P2
2024/01/25 00:01:42;;;;;;;6.77;2.30;;;8.70;58.70;;;;;;5060401;28;46509;-81
2024/01/25 00:04:07;;;;;;;12.13;2.10;;;8.60;58.70;;;;;;5071613;27;46538;-80
2024/01/25 00:06:33;;;;;;;6.00;1.70;;;8.60;58.70;;;;;;5070850;27;46721;-81
2024/01/25 00:08:58;;;;;;;12.50;2.20;;;8.70;58.80;;;;;;5071458;28;47174;-80
2024/01/25 00:11:24;;;;;;;9.43;1.77;;;8.70;58.50;;;;;;5071983;28;46302;-82
2024/01/25 00:13:50;;;;;;;10.83;2.17;;;8.70;58.30;;;;;;5073097;28;45812;-81
2024/01/25 00:16:15;;;;;;;15.83;2.30;;;8.70;58.10;;;;;;5059862;28;46987;-81
2024/01/25 00:18:41;;;;;;;7.10;1.97;;;8.70;58.20;;;;;;5068570;27;46436;-81
2024/01/25 00:21:07;;;;;;;9.93;1.83;;;8.70;58.50;;;;;;5069517;28;46418;-81
2024/01/25 00:23:33;;;;;;;8.90;2.63;;;8.60;58.40;;;;;;5074480;28;46472;-81
2024/01/25 00:25:59;;;;;;;10.30;2.20;;;8.60;58.40;;;;;;5073233;28;46589;-80
2024/01/25 00:28:25;;;;;;;11.40;2.30;;;8.60;58.40;;;;;;5055960;28;48270;-81
2024/01/25 00:30:51;;;;;;;9.97;2.70;;;8.60;58.30;;;;;;5068095;28;46076;-82
2024/01/25 00:33:17;;;;;;;17.90;2.30;;;8.50;58.20;;;;;;5074861;27;46454;-81
2024/01/25 00:35:43;;;;;;;10.33;2.30;;;8.50;58.20;;;;;;5071540;27;46575;-79
2024/01/25 00:38:09;;;;;;;11.50;2.13;;;8.50;58.10;;;;;;5072160;28;46691;-82
2024/01/25 00:40:35;;;;;;;9.53;2.53;;;8.50;57.30;;;;;;5080907;27;46737;-81
2024/01/25 00:43:01;;;;;;;12.83;1.93;;;8.50;57.90;;;;;;5067117;28;46727;-81
2024/01/25 00:45:27;;;;;;;18.40;2.33;;;8.50;58.00;;;;;;5070734;28;46771;-80
2024/01/25 00:47:52;;;;;;;17.63;3.00;;;8.60;57.80;;;;;;5067657;27;48691;-81
2024/01/25 00:50:20;;;;;;;14.93;2.43;;;8.40;57.70;;;;;;5068403;27;46519;-80
2024/01/25 00:52:47;;;;;;;15.37;3.17;;;8.40;57.70;;;;;;5068524;28;46736;-80
2024/01/25 00:55:14;;;;;;;16.33;2.63;;;8.40;57.80;;;;;;5075039;28;46779;-81
2024/01/25 00:57:40;;;;;;;12.80;2.10;;;8.40;58.00;;;;;;5059827;28;48421;-80
2024/01/25 01:00:08;;;;;;;12.90;2.10;;;8.40;58.00;;;;;;5071491;27;46913;-79
2024/01/25 01:02:38;;;;;;;16.20;2.93;;;8.30;58.00;;;;;;5067320;27;46447;-80
2024/01/25 01:05:05;;;;;;;11.37;2.90;;;8.30;57.90;;;;;;5068295;28;46503;-80
2024/01/25 01:07:31;;;;;;;8.33;2.27;;;8.40;58.00;;;;;;5051644;28;48334;-80
2024/01/25 01:09:56;;;;;;;14.43;2.60;;;8.30;59.00;;;;;;5054887;28;46539;-80
2024/01/25 01:12:22;;;;;;;10.83;2.20;;;8.30;58.00;;;;;;5055790;28;45958;-81
2024/01/25 01:14:48;;;;;;;14.73;2.03;;;8.40;57.90;;;;;;5052814;28;46512;-80
2024/01/25 01:17:14;;;;;;;13.47;2.27;;;8.40;57.70;;;;;;5055797;28;48608;-80
2024/01/25 01:19:39;;;;;;;13.00;2.20;;;8.40;57.90;;;;;;5073897;27;46771;-80
2024/01/25 01:22:05;;;;;;;13.40;2.63;;;8.40;57.70;;;;;;5074850;27;46575;-81
2024/01/25 01:24:30;;;;;;;8.70;2.43;;;8.50;57.60;;;;;;5074527;28;46236;-80
2024/01/25 01:26:56;;;;;;;13.03;2.57;;;8.50;57.30;;;;;;5070076;28;46708;-80
2024/01/25 01:29:21;;;;;;;10.20;2.27;;;8.60;57.00;;;;;;5072428;28;46785;-81
2024/01/25 01:31:47;;;;;;;15.10;3.33;;;8.50;56.80;;;;;;5069481;27;46858;-80
2024/01/25 01:34:13;;;;;;;15.77;3.00;;;8.50;56.90;;;;;;5073581;27;46772;-81
2024/01/25 01:36:39;;;;;;;14.40;2.63;;;8.60;56.70;;;;;;5070806;27;46621;-78
2024/01/25 01:39:06;;;;;;;8.67;2.40;;;8.60;56.70;;;;;;5069711;28;46491;-80
2024/01/25 01:41:31;;;;;;;7.07;1.70;;;8.50;56.60;;;;;;5075462;27;46494;-79
2024/01/25 01:43:57;;;;;;;14.00;2.43;;;8.60;56.60;;;;;;5075170;28;46340;-80
2024/01/25 01:46:40;;;;;;;15.17;2.30;;;8.50;56.70;;;;;;5069706;27;46475;-77
2024/01/25 01:49:08;;;;;;;8.57;3.03;;;8.50;57.00;;;;;;5069820;27;46677;-80
2024/01/25 01:51:34;;;;;;;15.43;3.00;;;8.50;57.30;;;;;;5072845;28;46411;-82
2024/01/25 01:54:02;;;;;;;12.70;2.30;;;8.50;57.10;;;;;;5051515;28;46559;-77
2024/01/25 01:56:28;;;;;;;12.67;2.20;;;8.60;56.80;;;;;;5068968;28;48301;-80
2024/01/25 01:58:57;;;;;;;9.57;1.97;;;8.60;56.60;;;;;;5063416;28;46536;-80
2024/01/25 02:01:24;;;;;;;13.63;2.30;;;8.60;56.40;;;;;;5073738;27;46694;-80
2024/01/25 02:03:50;;;;;;;15.93;2.77;;;8.60;56.60;;;;;;5061992;28;46467;-78
2024/01/25 02:06:15;;;;;;;11.37;1.80;;;8.60;56.80;;;;;;5063676;28;49164;-82
2024/01/25 02:08:41;;;;;;;7.20;1.77;;;8.60;56.90;;;;;;5073695;28;46480;-81
2024/01/25 02:11:08;;;;;;;7.27;2.00;;;8.60;57.10;;;;;;5069070;28;46791;-80
2024/01/25 02:13:34;;;;;;;14.03;1.93;;;8.60;57.10;;;;;;5072142;28;46911;-81
2024/01/25 02:16:00;;;;;;;12.53;1.77;;;8.50;57.00;;;;;;5072131;28;47253;-81
2024/01/25 02:18:26;;;;;;;13.80;2.00;;;8.60;57.00;;;;;;5053054;28;47285;-81
2024/01/25 02:20:52;;;;;;;9.97;2.50;;;8.60;56.90;;;;;;5071925;28;46945;-80
2024/01/25 02:23:17;;;;;;;8.90;1.73;;;8.60;57.00;;;;;;5069977;27;46590;-81
2024/01/25 02:25:43;;;;;;;9.43;2.10;;;8.60;57.20;;;;;;5072300;28;46115;-80
2024/01/25 02:28:08;;;;;;;15.00;2.33;;;8.50;57.60;;;;;;5051804;28;47647;-81
2024/01/25 02:30:34;;;;;;;12.13;2.23;;;8.50;58.10;;;;;;5073883;27;46802;-81
2024/01/25 02:32:59;;;;;;;7.43;1.70;;;8.40;58.60;;;;;;5078616;28;46511;-81
2024/01/25 02:35:25;;;;;;;16.30;2.53;;;8.50;59.00;;;;;;5072748;28;47087;-80
2024/01/25 02:37:50;;;;;;;11.70;2.10;;;8.40;59.10;;;;;;5074282;28;45930;-80
2024/01/25 02:40:16;;;;;;;9.37;2.10;;;8.40;59.60;;;;;;5071658;28;46358;-81
2024/01/25 02:42:42;;;;;;;16.27;2.90;;;8.40;59.60;;;;;;5070925;27;46407;-80
2024/01/25 02:45:08;;;;;;;14.63;2.40;;;8.40;59.80;;;;;;5069792;27;47105;-81
2024/01/25 02:47:33;;;;;;;14.80;1.97;;;8.40;59.40;;;;;;5067504;27;46868;-82
2024/01/25 02:49:59;;;;;;;9.33;1.97;;;8.50;59.10;;;;;;5071569;28;46462;-81
2024/01/25 02:52:24;;;;;;;10.60;2.10;;;8.50;58.60;;;;;;5053552;28;46748;-78
2024/01/25 02:54:50;;;;;;;13.70;2.20;;;8.50;58.80;;;;;;5071091;28;46972;-82
2024/01/25 02:57:16;;;;;;;14.93;1.90;;;8.50;58.80;;;;;;5069343;28;46438;-82
2024/01/25 02:59:41;;;;;;;12.27;1.70;;;8.50;58.70;;;;;;5070129;28;46490;-80
2024/01/25 03:02:07;;;;;;;11.70;2.33;;;8.50;58.70;;;;;;5071524;27;46884;-81
2024/01/25 03:04:32;;;;;;;11.47;2.03;;;8.50;59.00;;;;;;5068640;27;46396;-82
2024/01/25 03:06:58;;;;;;;18.03;2.10;;;8.50;59.00;;;;;;5070172;28;46400;-79
2024/01/25 03:09:23;;;;;;;14.57;2.30;;;8.50;59.00;;;;;;5068984;28;46491;-80
2024/01/25 03:11:49;;;;;;;10.03;1.93;;;8.60;59.10;;;;;;5067821;28;47018;-79
2024/01/25 03:14:15;;;;;;;9.53;1.87;;;8.50;58.80;;;;;;5068051;28;48055;-80
2024/01/25 03:16:41;;;;;;;8.20;1.40;;;8.50;58.90;;;;;;5071337;28;46711;-80
2024/01/25 03:19:06;;;;;;;10.47;1.67;;;8.50;58.80;;;;;;5067863;27;46920;-79
2024/01/25 03:21:32;;;;;;;10.37;1.93;;;8.50;59.00;;;;;;5067151;28;46943;-80
2024/01/25 03:23:57;;;;;;;8.27;2.10;;;8.50;59.10;;;;;;5067900;28;46717;-80
2024/01/25 03:26:23;;;;;;;13.03;2.50;;;8.40;59.40;;;;;;5070859;28;46482;-80
2024/01/25 03:28:48;;;;;;;11.87;2.50;;;8.40;59.50;;;;;;5071830;28;46472;-79
2024/01/25 03:31:14;;;;;;;15.23;2.43;;;8.50;59.40;;;;;;5068654;28;45897;-80
2024/01/25 03:33:39;;;;;;;11.03;1.97;;;8.50;59.40;;;;;;5059629;27;48329;-80
2024/01/25 03:36:06;;;;;;;10.80;1.90;;;8.40;59.10;;;;;;5071100;27;46864;-79
2024/01/25 03:38:32;;;;;;;10.93;1.93;;;8.30;61.10;;;;;;5073041;28;46511;-78
2024/01/25 03:40:58;;;;;;;10.63;1.80;;;8.30;60.60;;;;;;5080519;28;47561;-79
2024/01/25 03:43:25;;;;;;;9.23;1.90;;;8.20;61.10;;;;;;5063628;27;48378;-81
2024/01/25 03:45:50;;;;;;;5.60;1.70;;;8.20;61.30;;;;;;5072622;28;46545;-80
2024/01/25 03:48:16;;;;;;;12.77;2.17;;;8.20;62.00;;;;;;5071022;28;46713;-81
2024/01/25 03:50:42;;;;;;;16.00;1.60;;;8.10;62.90;;;;;;5069390;28;46502;-83
2024/01/25 03:53:07;;;;;;;10.83;1.77;;;8.00;63.70;;;;;;5070484;28;46454;-84
2024/01/25 03:55:33;;;;;;;6.23;1.23;;;8.10;63.80;;;;;;5060886;28;46537;-83
2024/01/25 03:57:59;;;;;;;10.37;1.60;;;8.00;63.70;;;;;;5063190;28;46493;-79
2024/01/25 04:00:24;;;;;;;8.00;1.60;;;8.00;64.30;;;;;;5084383;27;46363;-84
2024/01/25 04:02:50;;;;;;;13.67;2.13;;;8.00;65.10;;;;;;5077694;27;47682;-83
2024/01/25 04:05:16;;;;;;;6.07;1.60;;;7.90;65.50;;;;;;5076746;28;45885;-83
2024/01/25 04:07:42;;;;;;;9.37;2.20;;;7.90;66.00;;;;;;5083333;28;45759;-82
2024/01/25 04:10:07;;;;;;;18.13;1.83;;;7.90;66.40;;;;;;5079330;28;46841;-84
2024/01/25 04:12:33;;;;;;;6.03;1.57;;;7.90;67.00;;;;;;5079329;28;46375;-82
2024/01/25 04:15:01;;;;;;;6.30;1.63;;;7.80;67.40;;;;;;5077472;28;46311;-83
2024/01/25 04:17:26;;;;;;;10.30;2.20;;;7.80;67.60;;;;;;5070916;27;45744;-84
2024/01/25 04:19:52;;;;;;;8.17;1.60;;;7.90;67.30;;;;;;5072799;27;46505;-83
2024/01/25 04:22:17;;;;;;;11.30;1.80;;;7.90;67.40;;;;;;5073630;28;46384;-83
2024/01/25 04:24:43;;;;;;;9.37;1.60;;;7.90;67.10;;;;;;5075190;28;46359;-83
2024/01/25 04:27:10;;;;;;;7.90;1.63;;;7.90;67.00;;;;;;5077861;28;46737;-83
2024/01/25 04:29:42;;;;;;;8.63;2.10;;;8.00;66.70;;;;;;5077917;28;46335;-83
2024/01/25 04:32:08;;;;;;;4.23;1.20;;;8.00;66.10;;;;;;5078886;28;46557;-84
2024/01/25 04:34:36;;;;;;;16.80;2.60;;;8.10;65.70;;;;;;5078931;27;46390;-83
2024/01/25 04:37:01;;;;;;;16.47;1.83;;;8.10;65.10;;;;;;5053138;28;46717;-79
2024/01/25 04:39:27;;;;;;;5.60;1.37;;;8.20;64.80;;;;;;5077961;28;46692;-82
2024/01/25 04:41:53;;;;;;;10.73;1.80;;;8.20;64.50;;;;;;5074703;28;46922;-82
2024/01/25 04:44:18;;;;;;;6.47;2.03;;;8.20;64.40;;;;;;5074179;28;46478;-82
2024/01/25 04:46:44;;;;;;;9.43;1.93;;;8.10;64.70;;;;;;5079837;28;46577;-83
2024/01/25 04:49:09;;;;;;;6.50;1.90;;;8.10;64.70;;;;;;5080355;27;46418;-82
2024/01/25 04:51:35;;;;;;;12.40;1.90;;;8.10;64.80;;;;;;5074356;28;46511;-82
2024/01/25 04:54:01;;;;;;;10.60;2.00;;;8.00;65.30;;;;;;5082203;28;46661;-79
2024/01/25 04:56:26;;;;;;;10.07;1.80;;;7.90;65.90;;;;;;5079265;27;46274;-82
2024/01/25 04:58:52;;;;;;;13.57;1.90;;;7.90;66.10;;;;;;5081921;27;46248;-80
2024/01/25 05:01:18;;;;;;;7.93;2.07;;;7.90;66.10;;;;;;5081648;28;46595;-83
2024/01/25 05:03:43;;;;;;;10.70;1.87;;;7.90;66.20;;;;;;5061377;28;46445;-83
2024/01/25 05:06:09;;;;;;;8.83;2.13;;;7.90;66.20;;;;;;5076592;27;46267;-82
2024/01/25 05:08:34;;;;;;;8.07;1.80;;;7.90;66.40;;;;;;5081680;27;46229;-83
2024/01/25 05:11:00;;;;;;;7.40;1.43;;;7.90;66.30;;;;;;5077382;28;46461;-81
2024/01/25 05:13:25;;;;;;;7.87;1.30;;;7.90;66.30;;;;;;5079678;28;46429;-83
2024/01/25 05:15:51;;;;;;;6.50;1.50;;;7.90;66.20;;;;;;5081591;28;46638;-83
2024/01/25 05:18:17;;;;;;;8.87;1.30;;;7.80;66.20;;;;;;5079864;27;46324;-82
2024/01/25 05:20:42;;;;;;;4.70;1.40;;;7.80;66.30;;;;;;5069800;28;47940;-82
2024/01/25 05:23:08;;;;;;;10.03;2.23;;;7.80;66.40;;;;;;5062032;28;46529;-82
2024/01/25 05:25:33;;;;;;;5.00;1.30;;;7.80;66.70;;;;;;5080538;28;46265;-82
2024/01/25 05:27:59;;;;;;;10.23;1.90;;;7.80;66.90;;;;;;5080672;27;46493;-81
2024/01/25 05:30:25;;;;;;;6.40;1.70;;;7.80;67.10;;;;;;5086775;27;46455;-83
2024/01/25 05:32:53;;;;;;;7.77;1.37;;;7.70;67.40;;;;;;5079583;28;46789;-84
2024/01/25 05:35:19;;;;;;;9.37;2.17;;;7.80;67.70;;;;;;5070457;27;45787;-81
2024/01/25 05:37:44;;;;;;;11.30;2.47;;;7.70;67.80;;;;;;5079440;28;46624;-81
2024/01/25 05:40:10;;;;;;;12.90;1.60;;;7.70;67.90;;;;;;5065932;28;47932;-79
2024/01/25 05:42:36;;;;;;;8.10;1.23;;;7.70;68.00;;;;;;5077483;27;46619;-84
2024/01/25 05:45:03;;;;;;;7.90;1.60;;;7.70;68.10;;;;;;5076189;28;47384;-84
2024/01/25 05:47:29;;;;;;;9.93;1.53;;;7.70;68.10;;;;;;5066351;28;46378;-81
2024/01/25 05:49:55;;;;;;;8.00;1.63;;;7.70;68.20;;;;;;5069804;28;48326;-82
2024/01/25 05:52:21;;;;;;;9.27;2.00;;;7.70;68.20;;;;;;5069608;28;46213;-84
2024/01/25 05:54:47;;;;;;;5.90;1.57;;;7.70;68.60;;;;;;5078917;28;46833;-85
2024/01/25 05:57:12;;;;;;;5.47;1.30;;;7.70;68.90;;;;;;5081427;27;46376;-81
2024/01/25 05:59:38;;;;;;;16.03;3.07;;;7.60;68.90;;;;;;5062869;28;48347;-79
2024/01/25 06:02:04;;;;;;;16.77;2.30;;;7.70;69.10;;;;;;5081482;28;46389;-82
2024/01/25 06:04:30;;;;;;;8.57;1.73;;;7.70;68.90;;;;;;5080274;27;46645;-83
2024/01/25 06:06:55;;;;;;;3.43;1.50;;;7.70;68.80;;;;;;5081126;28;46545;-81
2024/01/25 06:09:21;;;;;;;6.00;2.07;;;7.70;68.90;;;;;;5079417;28;46938;-82
2024/01/25 06:11:46;;;;;;;12.70;1.53;;;7.60;68.90;;;;;;5075445;27;46548;-82
2024/01/25 06:14:12;;;;;;;15.73;2.53;;;7.60;68.80;;;;;;5077891;27;46332;-82
2024/01/25 06:16:37;;;;;;;11.90;2.00;;;7.70;68.80;;;;;;5080871;27;46503;-83
2024/01/25 06:19:03;;;;;;;10.77;2.10;;;7.60;68.80;;;;;;5082061;27;46513;-82
2024/01/25 06:21:29;;;;;;;8.57;2.60;;;7.40;69.30;;;;;;5077793;27;46506;-81
2024/01/25 06:23:55;;;;;;;8.40;1.73;;;7.40;69.70;;;;;;5063903;28;45784;-82
2024/01/25 06:26:20;;;;;;;6.27;1.97;;;7.30;70.00;;;;;;5080704;28;46502;-80
2024/01/25 06:28:46;;;;;;;7.03;1.60;;;7.30;70.00;;;;;;5065777;28;47655;-81
2024/01/25 06:31:11;;;;;;;12.30;1.93;;;7.30;69.80;;;;;;5059856;28;46776;-79
2024/01/25 06:33:37;;;;;;;6.53;1.70;;;7.40;69.60;;;;;;5065618;28;46462;-82
2024/01/25 06:36:02;;;;;;;7.07;1.80;;;7.30;69.60;;;;;;5078337;28;46280;-81
2024/01/25 06:38:28;;;;;;;12.27;2.17;;;7.40;69.50;;;;;;5080397;28;46623;-82
2024/01/25 06:40:54;;;;;;;15.13;2.13;;;7.40;69.10;;;;;;5079237;27;45776;-82
2024/01/25 06:43:19;;;;;;;4.60;1.33;;;7.50;69.10;;;;;;5060872;28;46745;-82
2024/01/25 06:45:45;;;;;;;17.17;2.47;;;7.50;68.80;;;;;;5072584;28;46506;-80
2024/01/25 06:48:11;;;;;;;10.70;2.03;;;7.50;68.70;;;;;;5076886;28;46446;-82
2024/01/25 06:50:36;;;;;;;15.53;2.60;;;7.50;68.70;;;;;;5081300;28;46487;-82
2024/01/25 06:53:02;;;;;;;8.47;2.00;;;7.60;68.50;;;;;;5076316;28;46279;-82
2024/01/25 06:55:28;;;;;;;7.57;2.20;;;7.60;68.00;;;;;;5079462;28;46738;-81
2024/01/25 06:57:53;;;;;;;10.17;2.07;;;7.70;67.90;;;;;;5056923;28;49186;-83
2024/01/25 07:00:20;;;;;;;7.33;1.73;;;7.70;67.50;;;;;;5060504;28;46787;-82
2024/01/25 07:02:46;;;;;;;10.10;1.87;;;7.80;67.20;;;;;;5067641;28;46420;-82
2024/01/25 07:05:12;;;;;;;8.23;1.63;;;7.80;67.10;;;;;;5066121;27;46423;-83
2024/01/25 07:07:38;;;;;;;6.03;2.43;;;7.80;67.10;;;;;;5077855;27;48663;-82
2024/01/25 07:10:05;;;;;;;8.50;2.27;;;7.80;67.20;;;;;;5081202;28;46228;-82
2024/01/25 07:12:30;;;;;;;6.33;2.10;;;7.80;67.00;;;;;;5067848;28;46454;-82
2024/01/25 07:14:56;;;;;;;9.30;2.07;;;7.80;67.00;;;;;;5076617;28;46503;-81
2024/01/25 07:17:21;;;;;;;13.87;1.93;;;7.80;68.20;;;;;;5082787;28;46396;-81
2024/01/25 07:19:47;;;;;;;10.90;2.40;;;7.70;67.00;;;;;;5075311;27;46527;-82
2024/01/25 07:22:14;;;;;;;10.17;1.90;;;7.70;67.40;;;;;;5073524;28;46223;-82
2024/01/25 07:24:40;;;;;;;10.70;1.90;;;7.50;67.70;;;;;;5070163;28;46947;-82
2024/01/25 07:27:06;;;;;;;9.63;1.87;;;7.40;68.20;;;;;;5082778;28;48717;-82
2024/01/25 07:29:31;;;;;;;5.60;1.90;;;7.40;68.40;;;;;;5082569;28;46195;-83
2024/01/25 07:31:57;;;;;;;14.07;2.27;;;7.30;69.00;;;;;;5057023;27;46487;-79
2024/01/25 07:34:22;;;;;;;17.33;2.20;;;7.20;69.50;;;;;;5071778;28;45907;-79
2024/01/25 07:36:48;;;;;;;9.70;3.40;;;7.20;70.10;;;;;;5062870;27;46499;-77
2024/01/25 07:39:14;;;;;;;16.13;2.33;;;7.10;70.50;;;;;;5070901;28;46431;-80
2024/01/25 07:41:39;;;;;;;9.93;2.13;;;7.00;71.00;;;;;;5065856;27;46950;-78
2024/01/25 07:44:05;;;;;;;7.70;1.90;;;7.00;71.10;;;;;;5068412;28;46690;-78
2024/01/25 07:46:31;;;;;;;12.10;1.93;;;7.00;71.10;;;;;;5052371;28;47304;-78
2024/01/25 07:48:57;;;;;;;18.30;2.17;;;6.90;70.80;;;;;;5049663;28;46554;-78
2024/01/25 07:51:22;;;;;;;23.73;2.83;;;6.90;70.70;;;;;;5073769;27;46773;-81
2024/01/25 07:53:48;;;;;;;16.70;2.40;;;7.00;70.60;;;;;;5067137;28;46735;-78
2024/01/25 07:56:13;;;;;;;15.30;2.60;;;7.00;70.70;;;;;;5065466;28;46442;-81
2024/01/25 07:58:40;;;;;;;17.37;2.80;;;7.10;70.70;;;;;;5067478;28;46782;-80
2024/01/25 08:01:06;;;;;;;14.80;2.47;;;7.20;70.10;;;;;;5049301;28;46554;-79
2024/01/25 08:03:32;;;;;;;8.20;2.47;;;7.40;69.60;;;;;;5067834;27;46539;-76
2024/01/25 08:06:02;;;;;;;7.73;1.80;;;7.60;69.10;;;;;;5063270;28;46703;-78
2024/01/25 08:08:28;;;;;;;15.63;2.20;;;7.80;68.30;;;;;;5061861;28;46497;-79
2024/01/25 08:10:54;;;;;;;13.13;2.43;;;8.00;67.80;;;;;;5066196;28;46475;-79
2024/01/25 08:13:19;;;;;;;9.60;1.93;;;8.10;67.60;;;;;;5067927;28;46580;-78
2024/01/25 08:15:45;;;;;;;16.67;2.50;;;8.20;67.30;;;;;;5061769;28;47969;-79
2024/01/25 08:18:11;;;;;;;12.87;2.80;;;8.10;67.20;;;;;;5053093;28;46976;-79
2024/01/25 08:20:39;;;;;;;17.97;2.27;;;8.10;67.20;;;;;;5052078;28;47956;-79
2024/01/25 08:23:07;;;;;;;7.70;2.00;;;8.20;67.30;;;;;;5067699;27;46410;-78
2024/01/25 08:25:33;;;;;;;8.70;1.97;;;8.30;67.20;;;;;;5048391;28;48344;-79
2024/01/25 08:27:58;;;;;;;11.97;2.30;;;8.30;67.10;;;;;;5047779;28;46857;-80
2024/01/25 08:30:24;;;;;;;5.53;1.90;;;8.20;67.10;;;;;;5065498;27;46489;-78
2024/01/25 08:32:51;;;;;;;7.27;2.07;;;8.10;67.30;;;;;;5066254;28;46677;-78
2024/01/25 08:35:17;;;;;;;9.60;2.00;;;7.90;67.80;;;;;;5062867;28;47358;-78
2024/01/25 08:37:43;;;;;;;11.73;1.93;;;7.90;68.30;;;;;;5061740;28;46923;-81
2024/01/25 08:40:09;;;;;;;13.90;2.37;;;7.90;68.00;;;;;;5067101;28;46909;-79
2024/01/25 08:42:35;;;;;;;12.00;2.73;;;8.00;67.90;;;;;;5064023;28;47184;-78
2024/01/25 08:45:01;;;;;;;13.53;2.43;;;8.10;67.50;;;;;;5063608;28;46355;-76
2024/01/25 08:47:26;;;;;;;19.13;3.33;;;8.20;66.50;;;;;;5063834;28;46857;-77
2024/01/25 08:49:52;;;;;;;8.60;2.13;;;8.20;66.70;;;;;;5066504;27;47054;-78
2024/01/25 08:52:17;;;;;;;17.83;4.20;;;8.20;66.20;;;;;;5066905;28;46215;-80
2024/01/25 08:54:43;;;;;;;30.63;3.17;;;8.20;66.60;;;;;;5062833;28;46579;-79
2024/01/25 08:57:09;;;;;;;19.03;3.43;;;8.30;66.20;;;;;;5063808;27;46417;-79
2024/01/25 08:59:37;;;;;;;18.17;3.00;;;8.40;65.80;;;;;;5047462;28;46479;-78
2024/01/25 09:02:06;;;;;;;17.23;3.60;;;8.50;65.10;;;;;;5049402;28;46574;-79
2024/01/25 09:04:32;;;;;;;12.17;2.53;;;8.70;64.30;;;;;;5063205;28;48232;-79
2024/01/25 09:06:58;;;;;;;15.97;3.60;;;8.80;64.00;;;;;;5059439;27;47217;-78
2024/01/25 09:09:24;;;;;;;13.43;2.47;;;8.90;63.50;;;;;;5065938;28;46420;-77
2024/01/25 09:11:49;;;;;;;17.10;2.37;;;9.00;63.00;;;;;;5066676;28;46674;-78
2024/01/25 09:14:15;;;;;;;11.10;2.00;;;9.00;62.90;;;;;;5063872;28;46839;-77
2024/01/25 09:16:41;;;;;;;7.80;2.13;;;9.00;63.00;;;;;;5061870;28;46512;-79
2024/01/25 09:19:06;;;;;;;12.13;2.40;;;9.00;63.10;;;;;;5045427;28;45863;-77
2024/01/25 09:21:32;;;;;;;12.33;1.97;;;9.20;63.20;;;;;;5062945;27;46518;-77
2024/01/25 09:23:57;;;;;;;12.60;2.13;;;9.40;63.20;;;;;;5053530;28;48588;-77
2024/01/25 09:26:23;;;;;;;12.20;2.20;;;9.50;62.60;;;;;;5053293;27;47976;-79
2024/01/25 09:28:48;;;;;;;12.73;2.27;;;9.60;62.30;;;;;;5065669;27;46985;-78
2024/01/25 09:31:14;;;;;;;12.43;2.30;;;9.70;61.80;;;;;;5065896;27;46516;-78
2024/01/25 09:33:39;;;;;;;12.13;2.70;;;9.70;61.60;;;;;;5048570;28;49036;-78
2024/01/25 09:36:05;;;;;;;11.77;2.50;;;9.70;61.00;;;;;;5063936;27;46788;-79
2024/01/25 09:38:31;;;;;;;21.20;3.23;;;9.80;60.70;;;;;;5068364;27;46918;-77
2024/01/25 09:40:57;;;;;;;16.67;2.63;;;9.80;60.00;;;;;;5068647;27;46827;-77
2024/01/25 09:43:22;;;;;;;17.52;3.10;;;9.80;59.60;;;;;;5065539;27;46538;-81
2024/01/25 09:45:56;;;;;;;16.17;3.37;;;9.80;56.10;;;;;;5063353;27;47036;-79
2024/01/25 09:48:23;;;;;;;13.83;2.40;;;9.50;51.50;;;;;;5072962;27;46347;-78
2024/01/25 09:50:49;;;;;;;24.43;3.47;;;9.50;50.90;;;;;;5065919;27;46480;-78
2024/01/25 09:53:24;;;;;;;14.57;3.17;;;9.60;50.50;;;;;;5067635;27;48197;-79
2024/01/25 09:56:03;;;;;;;15.37;2.93;;;9.60;49.10;;;;;;5066050;27;46693;-81
2024/01/25 09:58:39;;;;;;;13.70;2.67;;;9.80;47.70;;;;;;5067231;27;46573;-79
2024/01/25 10:01:12;;;;;;;13.23;2.50;;;9.90;46.60;;;;;;5052100;28;46411;-78
2024/01/25 10:03:47;;;;;;;15.97;2.73;;;9.80;46.00;;;;;;5057318;28;47161;-79
2024/01/25 10:06:14;;;;;;;20.83;2.83;;;9.50;42.70;;;;;;5050605;27;47049;-79
2024/01/25 10:08:39;;;;;;;16.73;2.73;;;9.40;43.60;;;;;;5049549;28;46901;-78
2024/01/25 10:11:06;;;;;;;10.63;2.80;;;9.50;43.90;;;;;;5052568;27;46478;-78
2024/01/25 10:13:32;;;;;;;16.90;3.53;;;9.40;43.60;;;;;;5070518;27;46871;-78
2024/01/25 10:15:57;;;;;;;10.03;2.80;;;9.40;44.10;;;;;;5053345;28;46443;-79
2024/01/25 10:18:25;;;;;;;23.40;3.10;;;9.40;43.80;;;;;;5066286;27;46533;-80
2024/01/25 10:20:53;;;;;;;13.63;2.27;;;9.30;42.90;;;;;;5049113;27;46485;-80
2024/01/25 10:23:18;;;;;;;10.37;2.33;;;9.30;42.60;;;;;;5049705;28;48066;-80
2024/01/25 10:25:44;;;;;;;23.53;4.10;;;9.30;43.30;;;;;;5063181;27;46457;-79
2024/01/25 10:28:09;;;;;;;12.93;2.57;;;9.50;42.70;;;;;;5055979;28;47440;-78
2024/01/25 10:30:36;;;;;;;15.53;2.67;;;9.60;42.40;;;;;;5062608;27;46519;-78
2024/01/25 10:33:04;;;;;;;13.03;2.70;;;9.80;41.70;;;;;;5064711;27;47022;-79
2024/01/25 10:35:31;;;;;;;19.00;3.00;;;10.00;40.10;;;;;;5063150;27;46851;-81
2024/01/25 10:37:56;;;;;;;17.43;3.40;;;9.80;39.20;;;;;;5052507;28;46509;-78
2024/01/25 10:40:22;;;;;;;14.80;2.43;;;9.70;39.20;;;;;;5067858;27;46486;-82
2024/01/25 10:42:48;;;;;;;19.30;2.60;;;9.50;39.20;;;;;;5067809;27;47582;-81
2024/01/25 10:45:14;;;;;;;10.27;2.47;;;9.30;39.90;;;;;;5064831;27;46572;-79
2024/01/25 10:47:44;;;;;;;16.63;3.20;;;9.20;40.50;;;;;;5053625;27;46439;-79
2024/01/25 10:50:13;;;;;;;12.53;2.87;;;9.10;41.30;;;;;;5068478;27;46588;-80
2024/01/25 10:52:41;;;;;;;18.07;3.13;;;9.00;41.70;;;;;;5068639;27;46454;-82
2024/01/25 10:55:11;;;;;;;14.03;2.67;;;9.10;41.70;;;;;;5048344;28;46760;-82
2024/01/25 10:57:37;;;;;;;12.53;2.63;;;9.20;41.60;;;;;;5068314;27;46952;-80
2024/01/25 11:00:07;;;;;;;16.53;3.20;;;9.40;41.30;;;;;;5055042;28;46539;-80
2024/01/25 11:02:39;;;;;;;17.23;2.97;;;9.70;42.10;;;;;;5055528;28;48084;-80
2024/01/25 11:05:13;;;;;;;12.77;3.20;;;9.80;40.10;;;;;;5064184;27;46646;-77
2024/01/25 11:07:50;;;;;;;12.73;3.20;;;10.00;38.40;;;;;;5053958;28;46712;-78
2024/01/25 11:10:21;;;;;;;13.90;3.30;;;10.10;38.50;;;;;;5068862;27;46386;-79
2024/01/25 11:13:05;;;;;;;23.53;2.93;;;10.00;38.40;;;;;;5065637;27;47908;-78
2024/01/25 11:15:35;;;;;;;11.07;2.50;;;10.00;38.40;;;;;;5065058;27;46509;-79
2024/01/25 11:18:08;;;;;;;15.07;3.07;;;9.90;39.90;;;;;;5065414;27;46859;-80
2024/01/25 11:20:35;;;;;;;15.60;2.90;;;9.70;40.00;;;;;;5055932;28;46727;-83
2024/01/25 11:23:09;;;;;;;15.13;3.33;;;9.70;40.50;;;;;;5051559;27;48648;-79
2024/01/25 11:25:36;;;;;;;7.50;2.10;;;9.70;40.20;;;;;;5063896;27;47429;-81
2024/01/25 11:28:03;;;;;;;9.73;2.10;;;9.90;39.30;;;;;;5063361;27;46690;-81
2024/01/25 11:30:33;;;;;;;10.23;2.77;;;9.90;37.90;;;;;;5064917;27;46532;-81
2024/01/25 11:32:59;;;;;;;16.73;2.33;;;9.80;38.40;;;;;;5055994;28;48062;-78
2024/01/25 11:35:25;;;;;;;9.70;1.90;;;9.70;36.20;;;;;;5065003;27;46428;-80
2024/01/25 11:37:51;;;;;;;9.40;2.47;;;9.50;36.60;;;;;;5062958;27;46715;-80
2024/01/25 11:40:18;;;;;;;13.50;2.20;;;9.50;36.90;;;;;;5067124;27;47315;-80
2024/01/25 11:42:45;;;;;;;26.93;3.37;;;9.50;37.20;;;;;;5066635;27;46534;-78
2024/01/25 11:45:14;;;;;;;13.95;2.60;;;9.70;37.40;;;;;;5058774;27;46937;-80
2024/01/25 11:47:41;;;;;;;15.13;3.03;;;9.90;37.10;;;;;;5050659;28;46449;-80
2024/01/25 11:50:09;;;;;;;9.57;2.20;;;9.90;36.60;;;;;;5050699;28;46209;-78
2024/01/25 11:52:35;;;;;;;16.30;2.90;;;10.10;36.00;;;;;;5065008;28;46622;-79
2024/01/25 11:55:06;;;;;;;14.30;2.30;;;10.20;35.50;;;;;;5063267;27;46800;-80
2024/01/25 11:57:33;;;;;;;9.10;1.80;;;10.10;34.70;;;;;;5064092;27;47036;-81
2024/01/25 11:59:59;;;;;;;11.40;2.30;;;10.00;35.10;;;;;;5066432;27;47279;-84
2024/01/25 12:02:26;;;;;;;13.50;1.97;;;10.00;35.40;;;;;;5065654;27;46735;-80
2024/01/25 12:04:53;;;;;;;15.93;1.77;;;10.00;35.60;;;;;;5045816;28;45919;-83
2024/01/25 12:07:20;;;;;;;7.33;2.23;;;10.10;35.70;;;;;;5067113;27;46752;-81
2024/01/25 12:10:02;;;;;;;13.57;2.50;;;10.30;35.30;;;;;;5068844;27;46723;-81
2024/01/25 12:12:28;;;;;;;13.17;2.20;;;10.60;34.40;;;;;;5068032;27;46489;-78
2024/01/25 12:15:05;;;;;;;8.00;1.83;;;10.80;32.90;;;;;;5064605;27;46498;-83
2024/01/25 12:17:31;;;;;;;8.60;2.00;;;11.00;31.10;;;;;;5065424;27;46480;-82
2024/01/25 12:19:58;;;;;;;11.50;2.07;;;11.00;29.80;;;;;;5069283;27;46428;-81
2024/01/25 12:22:32;;;;;;;12.10;2.47;;;10.80;29.90;;;;;;5066046;27;46875;-78
2024/01/25 12:24:58;;;;;;;22.40;2.50;;;10.70;29.60;;;;;;5055915;28;47119;-81
2024/01/25 12:27:26;;;;;;;9.60;1.77;;;10.60;30.50;;;;;;5064467;27;46296;-79
2024/01/25 12:29:55;;;;;;;12.37;2.10;;;10.70;30.50;;;;;;5064866;27;46790;-81
2024/01/25 12:32:21;;;;;;;8.67;2.43;;;10.60;30.80;;;;;;5057638;27;48228;-82
2024/01/25 12:34:57;;;;;;;13.17;1.90;;;10.70;30.90;;;;;;5065700;27;46462;-81
2024/01/25 12:37:23;;;;;;;11.57;2.17;;;10.80;31.10;;;;;;5048342;27;46766;-83
2024/01/25 12:39:53;;;;;;;11.70;2.37;;;10.70;30.90;;;;;;5052939;28;46955;-84
2024/01/25 12:42:20;;;;;;;9.47;2.27;;;10.70;30.90;;;;;;5055928;28;47946;-84
2024/01/25 12:44:46;;;;;;;9.77;2.80;;;10.80;30.40;;;;;;5065393;28;46485;-84
2024/01/25 12:47:13;;;;;;;12.70;2.50;;;10.90;31.10;;;;;;5048252;27;46546;-85